Time;durP1;ratioP1;P1;durP2;ratioP2;P2;SDS_P1;SDS_P2;PMS_P1;PMS_P2;Temp;Humidity;BMP_temperature;BMP_pressure;BME280_temperature;BME280_humidity;BME280_pressure;Samples;Min_cycle;Max_cycle;Signal;HPM_P1;HPM_P2
2022/03/31 00:16:23;;;;;;;23.83;11.73;;;;;;;8.43;57.59;99598.44;6188132;23;20008;-66
2022/03/31 00:43:43;;;;;;;22.42;12.45;;;;;;;8.21;57.63;99578.81;6188033;23;20019;-66
2022/03/31 00:47:59;;;;;;;25.20;12.63;;;;;;;8.10;58.04;99573.88;6189796;23;20052;-66
2022/03/31 00:52:55;;;;;;;26.50;11.88;;;;;;;8.11;58.11;99572.03;6188349;23;20391;-66
2022/03/31 00:57:30;;;;;;;24.52;12.13;;;;;;;8.06;57.78;99565.44;6190506;23;20088;-65
2022/03/31 01:37:21;;;;;;;23.88;13.23;;;;;;;8.02;57.72;99536.88;6129216;23;20024;-66
2022/03/31 01:41:58;;;;;;;26.85;13.57;;;;;;;7.91;58.35;99529.31;6140668;23;20068;-66
2022/03/31 01:46:37;;;;;;;31.80;12.88;;;;;;;7.94;58.20;99529.78;6136204;23;20084;-66
2022/03/31 01:50:13;;;;;;;23.25;13.00;;;;;;;7.92;58.51;99520.41;6155607;23;20022;-66
2022/03/31 01:53:28;;;;;;;32.47;13.35;;;;;;;7.90;58.90;99520.56;6132252;23;20021;-66
2022/03/31 01:56:25;;;;;;;25.27;13.15;;;;;;;7.85;58.42;99514.97;6135400;23;20021;-66
2022/03/31 01:59:24;;;;;;;36.63;14.10;;;;;;;7.91;59.63;99519.56;6089063;23;20112;-65
2022/03/31 02:02:32;;;;;;;24.83;12.80;;;;;;;7.91;59.87;99514.28;6164145;23;20025;-66
2022/03/31 02:05:30;;;;;;;30.60;13.00;;;;;;;7.90;60.36;99511.81;6184893;23;20044;-66
2022/03/31 02:08:18;;;;;;;28.77;12.77;;;;;;;7.94;60.69;99507.84;6184566;23;20348;-66
2022/03/31 02:10:59;;;;;;;30.70;14.02;;;;;;;8.04;63.23;99509.34;6183887;23;20083;-66
2022/03/31 02:13:26;;;;;;;34.15;13.70;;;;;;;8.17;61.35;99502.72;6159837;23;20017;-66
2022/03/31 02:15:54;;;;;;;21.80;14.00;;;;;;;8.01;61.27;99503.56;6184207;23;20044;-66
2022/03/31 02:18:21;;;;;;;27.17;14.07;;;;;;;8.05;62.02;99499.59;6184322;23;20013;-65
2022/03/31 02:20:48;;;;;;;26.98;13.88;;;;;;;8.01;62.59;99496.44;6185107;23;20024;-66
2022/03/31 02:23:15;;;;;;;28.00;14.00;;;;;;;7.98;62.69;99491.50;6158430;23;20110;-65
2022/03/31 02:25:43;;;;;;;33.83;14.95;;;;;;;8.01;62.35;99485.88;6185503;23;20096;-66
2022/03/31 02:28:12;;;;;;;28.88;15.13;;;;;;;8.10;63.98;99485.88;6185862;23;20024;-65
2022/03/31 02:30:40;;;;;;;34.55;15.73;;;;;;;8.03;64.49;99491.81;6159847;23;20020;-66
2022/03/31 02:33:07;;;;;;;35.58;15.38;;;;;;;7.98;65.04;99491.50;6184166;23;20025;-65
2022/03/31 02:35:34;;;;;;;27.90;14.82;;;;;;;8.06;64.34;99491.50;6185495;23;20017;-65
2022/03/31 02:38:02;;;;;;;32.08;15.18;;;;;;;8.04;64.29;99482.91;6141764;23;20021;-65
2022/03/31 02:40:29;;;;;;;27.77;15.35;;;;;;;7.99;64.86;99481.78;6175978;23;20053;-65
2022/03/31 02:42:56;;;;;;;28.98;15.65;;;;;;;8.09;65.56;99474.47;6159414;23;20028;-66
2022/03/31 02:45:22;;;;;;;28.02;14.77;;;;;;;8.15;66.34;99478.25;6159004;23;20025;-66
2022/03/31 02:47:49;;;;;;;30.48;16.40;;;;;;;8.10;65.68;99476.13;6181425;23;20017;-66
2022/03/31 02:50:17;;;;;;;28.23;15.65;;;;;;;8.05;65.83;99478.44;6183523;23;20040;-66
2022/03/31 02:55:32;;;;;;;35.42;16.23;;;;;;;8.00;65.77;99473.66;6185133;23;20028;-66
2022/03/31 02:58:01;;;;;;;37.95;17.50;;;;;;;8.00;67.21;99470.19;6184107;23;20084;-66
2022/03/31 03:00:32;;;;;;;34.53;17.00;;;;;;;7.98;67.73;99469.56;6159112;23;20452;-66
2022/03/31 03:03:01;;;;;;;34.47;17.30;;;;;;;7.97;67.98;99465.28;6183961;23;20455;-66
2022/03/31 03:05:29;;;;;;;36.25;17.90;;;;;;;7.99;69.14;99458.00;6183735;23;20462;-66
2022/03/31 03:07:57;;;;;;;34.05;18.23;;;;;;;8.02;70.04;99466.41;6159404;23;20071;-66
2022/03/31 03:10:24;;;;;;;35.00;18.50;;;;;;;8.05;70.65;99457.31;6183637;23;20021;-66
2022/03/31 03:12:51;;;;;;;37.00;17.88;;;;;;;8.02;70.39;99465.56;6185417;23;20025;-66
2022/03/31 03:15:18;;;;;;;35.67;17.52;;;;;;;7.91;70.01;99461.47;6084374;23;20475;-66
2022/03/31 03:17:47;;;;;;;39.20;20.17;;;;;;;7.96;71.33;99461.78;6159343;23;20039;-66
2022/03/31 03:20:15;;;;;;;38.63;19.80;;;;;;;7.99;71.44;99464.09;6187156;23;20452;-66
2022/03/31 03:22:43;;;;;;;36.15;19.08;;;;;;;7.92;71.02;99457.03;6189050;23;20024;-66
2022/03/31 03:25:11;;;;;;;36.85;19.67;;;;;;;7.97;71.43;99460.00;6159110;23;20448;-66
2022/03/31 03:27:39;;;;;;;38.58;20.45;;;;;;;7.99;71.78;99465.94;6185477;23;20017;-67
2022/03/31 03:30:07;;;;;;;38.80;18.70;;;;;;;7.93;71.47;99462.16;6183621;23;20025;-66
2022/03/31 03:32:36;;;;;;;40.65;19.73;;;;;;;7.89;71.90;99452.88;6185089;23;20120;-67
2022/03/31 03:35:06;;;;;;;38.17;19.48;;;;;;;8.03;72.97;99464.59;6183393;23;20072;-66
2022/03/31 03:37:33;;;;;;;41.95;19.95;;;;;;;8.00;73.15;99463.09;6181078;23;20024;-66
2022/03/31 03:40:04;;;;;;;44.53;21.27;;;;;;;7.92;73.49;99460.50;6182740;23;20017;-66
2022/03/31 03:42:32;;;;;;;36.78;20.15;;;;;;;7.80;72.72;99461.81;6135493;23;20518;-66
2022/03/31 03:44:59;;;;;;;41.20;20.77;;;;;;;7.88;73.15;99451.25;6158524;23;20098;-66
2022/03/31 03:47:28;;;;;;;41.28;19.80;;;;;;;7.85;74.05;99457.69;6183222;23;20068;-66
2022/03/31 03:49:54;;;;;;;40.05;19.98;;;;;;;7.84;74.01;99455.22;6184619;23;20025;-66
2022/03/31 03:52:21;;;;;;;45.10;20.67;;;;;;;7.88;73.73;99459.19;6184233;23;20044;-67
2022/03/31 03:54:48;;;;;;;50.00;20.35;;;;;;;7.90;74.00;99457.19;6184846;23;20391;-66
2022/03/31 03:57:15;;;;;;;37.30;19.85;;;;;;;7.78;74.58;99458.53;6185145;23;20059;-66
2022/03/31 03:59:42;;;;;;;40.35;21.00;;;;;;;7.70;75.16;99464.66;6133889;23;20029;-66
2022/03/31 04:02:09;;;;;;;48.25;21.95;;;;;;;7.76;75.37;99452.59;6159068;23;20025;-66
2022/03/31 04:04:36;;;;;;;42.45;21.60;;;;;;;7.74;75.43;99457.22;6158300;23;20029;-66
2022/03/31 04:07:03;;;;;;;45.17;22.17;;;;;;;7.69;75.69;99457.72;6156008;23;20029;-66
2022/03/31 04:09:30;;;;;;;44.92;21.30;;;;;;;7.66;75.83;99456.25;6159181;23;20021;-66
2022/03/31 04:11:56;;;;;;;48.78;22.20;;;;;;;7.74;75.97;99458.03;6183350;23;20025;-66
2022/03/31 04:14:24;;;;;;;43.30;21.58;;;;;;;7.72;76.14;99456.56;6158737;23;20024;-66
2022/03/31 04:16:51;;;;;;;42.90;21.30;;;;;;;7.69;75.54;99450.63;6158699;23;20021;-66
2022/03/31 04:19:19;;;;;;;45.80;21.45;;;;;;;7.76;75.83;99444.69;6183092;23;20025;-67
2022/03/31 04:21:46;;;;;;;50.35;21.23;;;;;;;7.72;75.76;99446.81;6182936;23;20032;-66
2022/03/31 04:24:13;;;;;;;44.30;21.77;;;;;;;7.63;75.92;99448.66;6183494;23;20021;-66
2022/03/31 04:26:40;;;;;;;46.72;21.52;;;;;;;7.73;76.57;99445.84;6158518;23;20021;-66
2022/03/31 04:29:09;;;;;;;46.70;21.60;;;;;;;7.61;76.26;99449.81;6183267;23;20379;-66
2022/03/31 04:31:40;;;;;;;47.13;21.55;;;;;;;7.49;76.22;99444.88;6183163;23;20563;-66
2022/03/31 04:34:08;;;;;;;;;;;;;;;7.53;76.48;99448.00;6184650;23;20016;-66
2022/03/31 04:36:37;;;;;;;45.72;20.73;;;;;;;7.54;76.99;99446.19;6186065;23;20048;-66
2022/03/31 04:39:04;;;;;;;50.53;22.20;;;;;;;7.64;75.98;99442.38;6185129;23;20021;-66
2022/03/31 04:41:33;;;;;;;39.58;19.45;;;;;;;7.40;76.07;99445.03;6136596;23;20029;-66
2022/03/31 04:43:59;;;;;;;45.03;20.13;;;;;;;7.41;76.61;99449.31;6146841;23;20025;-66
2022/03/31 04:46:26;;;;;;;43.38;21.30;;;;;;;7.33;77.19;99447.53;6184784;23;20348;-66
2022/03/31 04:48:53;;;;;;;43.75;21.02;;;;;;;7.28;76.97;99447.19;6185228;23;20043;-66
2022/03/31 04:51:20;;;;;;;46.63;22.17;;;;;;;7.19;77.50;99446.34;6159729;23;20518;-66
2022/03/31 04:53:47;;;;;;;45.75;21.10;;;;;;;7.27;77.34;99442.88;6186558;23;20041;-66
2022/03/31 04:56:15;;;;;;;44.60;20.27;;;;;;;7.20;76.65;99447.97;6184887;23;20029;-66
2022/03/31 04:58:42;;;;;;;47.58;21.10;;;;;;;7.24;77.80;99444.03;6111552;23;20024;-66
2022/03/31 05:01:10;;;;;;;44.25;20.38;;;;;;;7.27;77.87;99443.69;6160102;23;20021;-66
2022/03/31 05:03:39;;;;;;;44.80;21.50;;;;;;;7.18;78.00;99441.22;6186380;23;20460;-66
2022/03/31 05:06:06;;;;;;;45.13;20.83;;;;;;;7.10;78.09;99445.50;6142392;23;20021;-67
2022/03/31 05:08:33;;;;;;;43.60;20.30;;;;;;;7.15;77.01;99447.66;6133316;23;20017;-66
2022/03/31 05:11:01;;;;;;;44.70;20.45;;;;;;;7.14;77.87;99439.91;6160406;23;20064;-66
2022/03/31 05:13:28;;;;;;;44.75;19.98;;;;;;;7.26;78.38;99439.44;6160080;23;20448;-66
2022/03/31 05:15:54;;;;;;;46.10;20.75;;;;;;;7.13;78.31;99447.00;6171235;23;20032;-66
2022/03/31 05:18:21;;;;;;;38.53;19.52;;;;;;;7.17;76.57;99437.78;6184420;23;20044;-66
2022/03/31 05:20:48;;;;;;;44.13;20.63;;;;;;;7.04;77.74;99446.16;6186108;23;20064;-66
2022/03/31 05:23:15;;;;;;;41.38;20.15;;;;;;;7.16;77.84;99433.47;6170988;23;20029;-66
2022/03/31 05:25:42;;;;;;;43.85;20.10;;;;;;;6.99;77.32;99434.47;6182403;23;20041;-66
2022/03/31 05:28:09;;;;;;;40.75;20.02;;;;;;;7.05;78.74;99439.06;6186225;23;20376;-66
2022/03/31 05:30:36;;;;;;;40.08;19.45;;;;;;;6.95;78.21;99438.38;6160305;23;20260;-66
2022/03/31 05:33:03;;;;;;;44.95;20.95;;;;;;;6.91;77.68;99437.88;6184494;23;20440;-66
2022/03/31 05:35:30;;;;;;;43.13;19.90;;;;;;;6.99;77.90;99437.91;6185880;23;20071;-66
2022/03/31 05:37:57;;;;;;;43.78;20.35;;;;;;;6.98;77.81;99438.88;6159758;23;20025;-66
2022/03/31 05:40:24;;;;;;;46.20;19.88;;;;;;;6.99;78.63;99430.00;6185782;23;20017;-66
2022/03/31 05:42:55;;;;;;;46.05;20.50;;;;;;;7.04;77.77;99432.13;6189502;23;20102;-66
2022/03/31 05:45:21;;;;;;;43.95;21.10;;;;;;;6.97;78.17;99437.25;6157745;23;20467;-66
2022/03/31 05:47:48;;;;;;;41.58;20.67;;;;;;;6.96;78.70;99438.22;6183465;23;20023;-66
2022/03/31 05:50:16;;;;;;;43.95;20.55;;;;;;;6.98;79.56;99435.44;6159215;23;20021;-66
2022/03/31 05:52:43;;;;;;;51.17;20.95;;;;;;;6.99;78.62;99437.91;6159239;23;20107;-66
2022/03/31 05:55:15;;;;;;;48.75;21.23;;;;;;;7.01;78.62;99433.31;6183413;23;20021;-66
2022/03/31 05:57:42;;;;;;;45.20;21.48;;;;;;;7.05;78.58;99433.81;6185789;23;20104;-66
2022/03/31 06:00:13;;;;;;;43.75;20.55;;;;;;;7.02;78.22;99426.22;6183245;23;20025;-66
2022/03/31 06:02:40;;;;;;;52.83;21.30;;;;;;;7.07;77.70;99429.19;6185445;23;20017;-66
2022/03/31 06:05:15;;;;;;;43.47;20.60;;;;;;;7.01;78.04;99429.84;6181852;23;20017;-66
2022/03/31 06:07:42;;;;;;;41.55;19.42;;;;;;;6.98;77.51;99428.34;6183471;23;20016;-67
2022/03/31 06:10:09;;;;;;;47.10;21.05;;;;;;;6.91;77.35;99427.34;6182065;23;20474;-66
2022/03/31 06:12:37;;;;;;;48.90;20.25;;;;;;;6.97;77.82;99431.13;6159459;23;20017;-66
2022/03/31 06:15:06;;;;;;;53.22;20.33;;;;;;;7.00;79.46;99433.47;6183640;23;20025;-66
2022/03/31 06:17:34;;;;;;;42.92;19.35;;;;;;;7.09;78.18;99429.84;6185633;23;20068;-66
2022/03/31 06:20:02;;;;;;;45.65;19.85;;;;;;;7.08;77.58;99422.94;6185347;23;20021;-66
2022/03/31 06:22:29;;;;;;;47.08;20.00;;;;;;;7.11;78.37;99430.50;6183625;23;20021;-66
2022/03/31 06:24:56;;;;;;;45.92;19.77;;;;;;;7.08;78.82;99433.47;6184185;23;20047;-66
2022/03/31 06:27:23;;;;;;;42.22;20.40;;;;;;;7.11;78.35;99430.50;6185519;23;20044;-66
2022/03/31 06:29:52;;;;;;;45.38;21.35;;;;;;;7.16;77.92;99428.19;6185244;23;20067;-66
2022/03/31 06:32:19;;;;;;;43.10;20.23;;;;;;;7.16;77.87;99430.03;6184108;23;20021;-66
2022/03/31 06:34:47;;;;;;;42.10;19.33;;;;;;;7.18;78.39;99444.69;6133248;23;20025;-66
2022/03/31 06:37:14;;;;;;;47.53;20.08;;;;;;;7.02;78.06;99439.38;6185179;23;20063;-66
2022/03/31 06:39:42;;;;;;;41.88;19.25;;;;;;;7.09;77.64;99435.97;6145993;23;20455;-66
2022/03/31 06:42:09;;;;;;;43.67;19.85;;;;;;;7.30;76.63;99438.09;6185611;23;20025;-66
2022/03/31 06:44:37;;;;;;;44.55;20.17;;;;;;;7.15;76.01;99431.84;6159529;23;20045;-66
2022/03/31 06:47:05;;;;;;;38.90;19.42;;;;;;;7.14;76.87;99442.56;6183632;23;20024;-66
2022/03/31 06:49:34;;;;;;;45.00;18.90;;;;;;;7.09;77.19;99435.97;6159417;23;20021;-66
2022/03/31 06:52:01;;;;;;;43.92;19.35;;;;;;;6.99;77.14;99440.56;6184927;23;20024;-66
2022/03/31 06:54:28;;;;;;;45.78;19.65;;;;;;;7.17;77.98;99440.41;6184029;23;20355;-66
2022/03/31 06:56:55;;;;;;;41.03;18.98;;;;;;;7.16;77.56;99436.13;6134325;23;20333;-66
2022/03/31 06:59:22;;;;;;;47.40;19.20;;;;;;;7.15;77.44;99434.47;6183323;23;20024;-66
2022/03/31 07:01:49;;;;;;;45.00;19.88;;;;;;;7.15;76.67;99433.63;6183842;23;20444;-66
2022/03/31 07:04:16;;;;;;;44.25;20.33;;;;;;;7.19;76.61;99432.34;6159166;23;20385;-66
2022/03/31 07:06:43;;;;;;;40.67;18.35;;;;;;;7.20;76.04;99426.88;6185080;23;20096;-66
2022/03/31 07:09:10;;;;;;;47.53;19.73;;;;;;;7.17;76.35;99429.88;6171140;23;20505;-66
2022/03/31 07:11:37;;;;;;;41.08;19.88;;;;;;;7.22;76.28;99424.94;6185357;23;20444;-66
2022/03/31 07:14:06;;;;;;;43.80;19.85;;;;;;;7.21;76.18;99423.25;6132783;23;20029;-66
2022/03/31 07:16:33;;;;;;;49.42;20.58;;;;;;;7.17;76.33;99431.66;6163612;23;20514;-66
2022/03/31 07:19:01;;;;;;;46.13;20.88;;;;;;;7.23;76.28;99431.84;6121100;23;20028;-66
2022/03/31 07:21:30;;;;;;;43.07;19.77;;;;;;;7.23;76.15;99431.84;6183726;23;20017;-66
2022/03/31 07:23:57;;;;;;;47.42;20.77;;;;;;;7.33;77.09;99433.47;6159033;23;20021;-66
2022/03/31 07:26:24;;;;;;;44.75;21.00;;;;;;;7.41;77.93;99436.13;6185123;23;20462;-66
2022/03/31 07:28:52;;;;;;;46.63;20.20;;;;;;;7.49;77.93;99436.13;6155723;23;20340;-66
2022/03/31 07:31:19;;;;;;;48.20;19.98;;;;;;;7.53;77.14;99434.81;6183859;23;20021;-65
2022/03/31 07:33:46;;;;;;;41.25;19.38;;;;;;;7.47;76.27;99432.81;6181191;23;20790;-66
2022/03/31 07:36:12;;;;;;;48.58;20.55;;;;;;;7.46;76.82;99434.66;6157680;23;20032;-66
2022/03/31 07:38:40;;;;;;;47.25;20.35;;;;;;;7.53;76.83;99437.47;6181632;23;20440;-66
2022/03/31 07:41:07;;;;;;;41.50;18.73;;;;;;;7.50;76.09;99440.41;6157209;23;20447;-66
2022/03/31 07:43:35;;;;;;;39.20;18.77;;;;;;;7.49;76.09;99436.13;6158292;23;20100;-66
2022/03/31 07:46:02;;;;;;;46.97;20.02;;;;;;;7.51;77.37;99431.50;6162539;23;20083;-66
2022/03/31 07:48:29;;;;;;;42.33;20.05;;;;;;;7.56;77.04;99438.91;6182118;23;20022;-66
2022/03/31 07:50:58;;;;;;;41.38;19.70;;;;;;;7.58;77.49;99426.38;6182387;23;20017;-67
2022/03/31 07:53:26;;;;;;;47.13;19.60;;;;;;;7.59;77.65;99426.22;6158186;23;20024;-66
2022/03/31 07:55:54;;;;;;;43.88;19.52;;;;;;;7.63;77.18;99426.72;6182985;23;20096;-66
2022/03/31 07:58:21;;;;;;;38.50;18.35;;;;;;;7.57;76.78;99424.75;6183208;23;20039;-66
2022/03/31 08:00:50;;;;;;;39.78;19.52;;;;;;;7.63;76.97;99422.25;6184869;23;20029;-66
2022/03/31 08:03:18;;;;;;;40.78;18.50;;;;;;;7.65;77.37;99422.09;6184690;23;20457;-66
2022/03/31 08:05:46;;;;;;;40.20;18.77;;;;;;;7.72;77.19;99419.63;6157854;23;20093;-67
2022/03/31 08:08:13;;;;;;;41.75;19.38;;;;;;;7.77;77.47;99418.13;6179591;23;20013;-65
2022/03/31 08:10:40;;;;;;;41.33;18.65;;;;;;;7.91;75.96;99413.13;6134795;23;20055;-65
2022/03/31 08:13:08;;;;;;;39.40;17.55;;;;;;;7.81;76.35;99414.13;6159397;23;20423;-65
2022/03/31 08:15:35;;;;;;;46.72;19.08;;;;;;;7.68;75.43;99419.94;6159545;23;20017;-65
2022/03/31 08:18:02;;;;;;;43.33;18.70;;;;;;;7.73;76.23;99416.81;6135069;23;20045;-66
2022/03/31 08:20:29;;;;;;;38.67;17.85;;;;;;;7.55;75.34;99414.34;6160106;23;20424;-66
2022/03/31 08:22:56;;;;;;;36.25;17.63;;;;;;;7.59;75.22;99415.66;6141781;23;20021;-66
2022/03/31 08:25:23;;;;;;;40.63;17.85;;;;;;;7.69;75.79;99420.75;6184758;23;20025;-66
2022/03/31 08:27:49;;;;;;;43.47;19.90;;;;;;;7.65;74.99;99419.44;6184547;23;20332;-67
2022/03/31 08:30:19;;;;;;;37.28;17.30;;;;;;;7.72;75.04;99425.72;6184739;23;20070;-65
2022/03/31 08:32:46;;;;;;;43.08;18.35;;;;;;;7.60;75.65;99430.50;6184066;23;20021;-66
2022/03/31 08:35:15;;;;;;;38.72;17.95;;;;;;;7.68;76.32;99430.50;6108977;23;20032;-65
2022/03/31 08:37:43;;;;;;;40.85;18.23;;;;;;;7.60;75.36;99427.84;6183932;23;20028;-65
2022/03/31 08:40:11;;;;;;;43.33;18.10;;;;;;;7.69;75.17;99433.94;6184039;23;20028;-66
2022/03/31 08:42:39;;;;;;;40.70;17.80;;;;;;;7.65;75.40;99427.38;6135449;23;20029;-66
2022/03/31 08:45:11;;;;;;;45.97;19.02;;;;;;;7.68;76.36;99427.84;6184278;23;20029;-65
2022/03/31 08:47:42;;;;;;;34.20;16.83;;;;;;;7.66;74.76;99429.03;6160292;23;20025;-65
2022/03/31 08:50:19;;;;;;;41.13;18.42;;;;;;;7.63;74.88;99427.53;6183784;23;20055;-65
2022/03/31 08:52:45;;;;;;;39.50;18.83;;;;;;;7.54;76.03;99433.81;6184274;23;20067;-66
2022/03/31 08:55:12;;;;;;;36.80;17.60;;;;;;;7.62;76.88;99433.81;6184236;23;20043;-66
2022/03/31 08:57:42;;;;;;;38.65;18.83;;;;;;;7.65;76.24;99433.47;6159815;23;20024;-66
2022/03/31 09:00:12;;;;;;;43.72;17.85;;;;;;;7.69;76.68;99432.16;6183363;23;20021;-66
2022/03/31 09:02:39;;;;;;;36.25;17.75;;;;;;;7.67;75.54;99441.22;6160173;23;20025;-65
2022/03/31 09:05:10;;;;;;;41.08;18.38;;;;;;;7.75;76.29;99440.38;6185758;23;20035;-65
2022/03/31 09:07:58;;;;;;;37.80;18.75;;;;;;;7.74;76.34;99436.91;6183223;23;20458;-66
2022/03/31 09:10:28;;;;;;;41.47;18.02;;;;;;;7.86;72.50;99440.03;6185514;23;20021;-67
2022/03/31 09:12:55;;;;;;;40.70;17.90;;;;;;;7.80;72.11;99444.16;6135512;23;20356;-65
2022/03/31 09:15:29;;;;;;;40.67;17.35;;;;;;;7.80;73.55;99436.22;6184403;23;20017;-66
2022/03/31 09:17:57;;;;;;;46.92;19.40;;;;;;;7.77;76.18;99436.59;6185655;23;20047;-66
2022/03/31 09:20:37;;;;;;;35.80;17.95;;;;;;;7.59;75.87;99443.88;6158692;23;20504;-65
2022/03/31 09:23:04;;;;;;;40.75;18.13;;;;;;;7.60;75.29;99437.59;6183577;23;20021;-65
2022/03/31 09:25:32;;;;;;;40.40;17.33;;;;;;;7.90;73.15;99433.44;6185834;23;20021;-65
2022/03/31 09:28:01;;;;;;;44.85;18.35;;;;;;;7.80;74.26;99433.59;6185360;23;20348;-65
2022/03/31 09:30:28;;;;;;;43.17;17.60;;;;;;;7.83;74.61;99437.72;6160560;23;20025;-65
2022/03/31 09:32:54;;;;;;;38.08;16.50;;;;;;;7.80;74.65;99438.88;6159466;23;20399;-65
2022/03/31 09:35:23;;;;;;;33.60;14.52;;;;;;;7.84;72.90;99440.22;6179329;23;20064;-65
2022/03/31 09:37:51;;;;;;;40.13;16.85;;;;;;;7.73;72.94;99437.94;6185368;23;20021;-65
2022/03/31 09:40:19;;;;;;;39.42;16.48;;;;;;;7.72;75.68;99443.38;6159136;23;20048;-65
2022/03/31 09:43:01;;;;;;;37.47;16.98;;;;;;;7.78;74.51;99440.03;6184964;23;20451;-65
2022/03/31 09:45:43;;;;;;;36.53;15.80;;;;;;;7.73;74.83;99440.56;6183174;23;20025;-65
2022/03/31 09:48:21;;;;;;;42.35;17.95;;;;;;;7.77;76.00;99443.69;6183545;23;20021;-65
2022/03/31 09:50:49;;;;;;;41.13;17.90;;;;;;;7.77;76.71;99441.88;6184229;23;20075;-67
2022/03/31 09:53:16;;;;;;;34.42;17.08;;;;;;;7.79;76.70;99439.06;6158746;23;20079;-66
2022/03/31 09:55:44;;;;;;;41.55;16.80;;;;;;;7.81;76.49;99443.19;6159060;23;20094;-67
2022/03/31 09:58:17;;;;;;;40.30;18.75;;;;;;;7.83;76.74;99443.81;6158589;23;20021;-67
2022/03/31 10:00:46;;;;;;;31.85;15.23;;;;;;;7.88;76.24;99441.50;6184004;23;20099;-66
2022/03/31 10:03:14;;;;;;;32.35;16.02;;;;;;;7.83;74.84;99443.00;6133248;23;20025;-67
2022/03/31 10:05:42;;;;;;;43.78;15.98;;;;;;;7.73;74.42;99440.56;6159351;23;20025;-67
2022/03/31 10:08:10;;;;;;;29.55;15.18;;;;;;;7.85;74.71;99446.31;6181740;23;20075;-66
2022/03/31 10:10:38;;;;;;;37.40;16.52;;;;;;;7.78;74.92;99448.78;6185191;23;20455;-66
2022/03/31 10:16:06;;;;;;;40.30;16.15;;;;;;;7.77;75.58;99443.69;5110545;27;20465;-66
2022/03/31 10:18:32;;;;;;;37.90;17.60;;;;;;;7.78;75.62;99445.31;5092563;28;20097;-65
2022/03/31 10:20:59;;;;;;;35.05;15.75;;;;;;;7.73;75.38;99431.81;5075847;28;20060;-66
2022/03/31 10:26:28;;;;;;;38.35;16.50;;;;;;;7.73;74.88;99437.09;5076924;28;20044;-66
2022/03/31 10:28:59;;;;;;;34.45;15.10;;;;;;;7.60;74.84;99442.88;5103994;28;20031;-65
2022/03/31 10:31:46;;;;;;;34.38;15.75;;;;;;;7.54;73.87;99443.53;5095648;28;20048;-65
2022/03/31 10:34:14;;;;;;;32.05;15.05;;;;;;;7.58;74.36;99450.13;5099771;28;20559;-65
2022/03/31 10:36:48;;;;;;;34.58;16.08;;;;;;;7.63;75.83;99446.00;5086213;28;20462;-66
2022/03/31 10:39:19;;;;;;;34.90;16.48;;;;;;;7.59;75.01;99436.78;5075289;28;20093;-65
2022/03/31 10:41:47;;;;;;;31.80;15.32;;;;;;;7.67;76.29;99434.13;5072049;28;20048;-65
2022/03/31 10:44:17;;;;;;;36.28;15.45;;;;;;;7.63;75.46;99432.81;5059860;28;20032;-65
2022/03/31 10:46:58;;;;;;;32.42;15.40;;;;;;;7.61;76.50;99440.06;5071403;28;20060;-65
2022/03/31 10:49:27;;;;;;;34.47;15.82;;;;;;;7.60;75.93;99434.94;5057414;28;20102;-65
2022/03/31 10:51:53;;;;;;;32.22;15.60;;;;;;;7.59;75.54;99428.84;5038486;28;20109;-65
2022/03/31 10:54:31;;;;;;;34.60;15.68;;;;;;;7.48;74.75;99434.47;5071536;28;20048;-65
2022/03/31 10:57:08;;;;;;;32.33;16.45;;;;;;;7.59;73.12;99423.59;5084112;28;20057;-65
2022/03/31 10:59:36;;;;;;;34.80;15.27;;;;;;;7.47;75.44;99431.00;5071271;28;20135;-65
2022/03/31 11:02:15;;;;;;;33.15;15.40;;;;;;;7.51;73.83;99426.22;5071482;28;20044;-66
2022/03/31 11:04:46;;;;;;;33.55;15.13;;;;;;;7.53;74.03;99429.53;5071641;28;20036;-65
2022/03/31 11:07:14;;;;;;;32.28;15.38;;;;;;;7.31;73.96;99425.72;5079661;28;20052;-66
2022/03/31 11:09:43;;;;;;;32.95;15.45;;;;;;;7.22;75.01;99427.56;5091350;28;20052;-65
2022/03/31 11:12:27;;;;;;;33.20;15.77;;;;;;;7.21;75.69;99425.91;5072012;28;20105;-65
2022/03/31 11:14:57;;;;;;;33.08;15.85;;;;;;;7.52;74.39;99427.06;5084347;28;20040;-65
2022/03/31 11:17:25;;;;;;;31.30;15.27;;;;;;;7.46;72.62;99421.44;5088742;28;20094;-65
2022/03/31 11:19:53;;;;;;;36.38;15.95;;;;;;;7.52;75.54;99424.41;5069757;28;20099;-65
2022/03/31 11:22:23;;;;;;;32.60;14.55;;;;;;;7.61;76.04;99418.13;5070875;28;20048;-66
2022/03/31 11:24:51;;;;;;;35.95;14.55;;;;;;;7.54;74.24;99420.63;5088173;28;20563;-65
2022/03/31 11:27:31;;;;;;;32.28;15.80;;;;;;;7.68;73.08;99419.13;5063701;28;20117;-65
2022/03/31 11:29:58;;;;;;;34.60;15.60;;;;;;;7.60;74.07;99412.00;5094538;28;20058;-65
2022/03/31 11:32:34;;;;;;;34.55;16.10;;;;;;;7.66;75.79;99415.84;5098445;28;20044;-65
2022/03/31 11:35:02;;;;;;;38.70;16.25;;;;;;;7.66;74.09;99413.19;5113790;28;20088;-65
2022/03/31 11:37:29;;;;;;;34.25;16.00;;;;;;;7.67;74.92;99407.72;5083074;28;20036;-65
2022/03/31 11:39:55;;;;;;;35.40;15.98;;;;;;;7.90;73.18;99406.22;5083315;28;20450;-65
2022/03/31 11:42:22;;;;;;;36.75;15.75;;;;;;;7.74;73.84;99407.88;5094137;28;20076;-65
2022/03/31 11:44:49;;;;;;;32.35;14.43;;;;;;;7.70;74.03;99403.94;5077588;28;20123;-65
2022/03/31 11:47:20;;;;;;;36.50;16.38;;;;;;;7.56;74.23;99405.44;5067481;28;20051;-65
2022/03/31 11:50:03;;;;;;;30.20;14.48;;;;;;;7.40;74.16;99408.09;5075536;28;20048;-65
2022/03/31 11:52:31;;;;;;;;;;;;;;;7.18;74.90;99407.75;5098807;28;20074;-65
2022/03/31 11:55:00;;;;;;;32.30;14.95;;;;;;;7.18;75.36;99401.66;5104054;28;20364;-65
2022/03/31 11:57:28;;;;;;;35.45;16.35;;;;;;;7.21;76.44;99406.63;5071731;28;20105;-65
2022/03/31 12:00:06;;;;;;;36.40;15.15;;;;;;;7.53;75.14;99407.56;5084546;28;20044;-65
2022/03/31 12:02:34;;;;;;;31.77;15.10;;;;;;;7.57;72.28;99403.63;5086460;28;20404;-65
2022/03/31 12:05:02;;;;;;;35.45;15.55;;;;;;;7.47;73.66;99401.16;5095700;28;20035;-65
2022/03/31 12:07:30;;;;;;;31.02;14.23;;;;;;;7.39;73.04;99396.72;5092683;28;20100;-65
2022/03/31 12:09:57;;;;;;;36.10;15.18;;;;;;;7.28;73.63;99402.34;5075293;28;20101;-65
2022/03/31 12:12:24;;;;;;;31.40;14.65;;;;;;;7.24;73.32;99401.00;5092947;28;20404;-65
2022/03/31 12:14:54;;;;;;;36.28;15.20;;;;;;;7.21;73.11;99401.34;5079666;28;20036;-65
2022/03/31 12:17:21;;;;;;;30.88;15.07;;;;;;;7.06;74.08;99395.91;5060615;28;20124;-66
2022/03/31 12:19:48;;;;;;;38.30;16.52;;;;;;;7.32;73.36;99402.84;5073677;28;20142;-66
2022/03/31 12:22:16;;;;;;;36.17;16.88;;;;;;;7.53;73.94;99392.59;5062117;28;20063;-66
2022/03/31 12:24:50;;;;;;;34.10;15.73;;;;;;;7.41;75.14;99397.38;5075026;28;20047;-65
2022/03/31 12:27:18;;;;;;;32.10;15.93;;;;;;;7.33;76.23;99400.03;5056377;28;20306;-65
2022/03/31 12:29:45;;;;;;;35.17;16.15;;;;;;;7.52;74.79;99395.41;5055799;28;20052;-66
2022/03/31 12:32:13;;;;;;;38.28;18.38;;;;;;;7.49;75.17;99396.53;5055815;28;20109;-65
2022/03/31 12:34:54;;;;;;;38.25;17.80;;;;;;;7.56;77.05;99400.16;5072008;28;20032;-65
2022/03/31 12:37:31;;;;;;;36.40;18.00;;;;;;;7.57;77.57;99401.81;5058089;28;20139;-65
2022/03/31 12:39:59;;;;;;;38.63;18.10;;;;;;;7.81;78.58;99400.13;5072285;28;20048;-65
2022/03/31 12:42:26;;;;;;;43.50;21.00;;;;;;;7.67;75.99;99394.53;5087743;28;20187;-64
2022/03/31 12:44:53;;;;;;;50.67;23.27;;;;;;;7.67;77.37;99399.78;5067951;28;20463;-65
2022/03/31 12:47:23;;;;;;;44.45;22.27;;;;;;;7.57;77.03;99401.00;5061411;28;20072;-65
2022/03/31 12:49:51;;;;;;;44.77;22.40;;;;;;;7.33;77.42;99402.66;5055820;28;20048;-65
2022/03/31 12:52:21;;;;;;;40.25;22.02;;;;;;;7.31;77.61;99401.97;5026891;28;20040;-65
2022/03/31 12:54:52;;;;;;;37.45;20.33;;;;;;;7.50;78.20;99406.94;5065761;28;20146;-65
2022/03/31 12:57:28;;;;;;;36.53;19.90;;;;;;;7.28;78.48;99403.16;5055243;28;20053;-66
2022/03/31 13:00:13;;;;;;;34.92;18.25;;;;;;;7.46;79.06;99399.53;5066165;28;20044;-66
2022/03/31 13:02:43;;;;;;;34.92;18.75;;;;;;;7.40;78.82;99395.72;5071618;28;20072;-66
2022/03/31 13:05:16;;;;;;;32.65;16.85;;;;;;;7.40;77.03;99397.53;5071132;28;20047;-65
2022/03/31 13:07:44;;;;;;;35.97;18.45;;;;;;;7.13;78.40;99401.31;5083569;28;20046;-65
2022/03/31 13:10:11;;;;;;;40.30;20.38;;;;;;;7.26;80.29;99388.50;5079219;28;20079;-65
2022/03/31 13:12:38;;;;;;;39.90;21.27;;;;;;;7.35;81.28;99397.19;5038844;28;20106;-65
2022/03/31 13:15:07;;;;;;;44.08;22.00;;;;;;;7.33;79.25;99397.41;5054144;28;20048;-65